Wetterdaten: Woche 09.11.09 - 15.11.09 (KW46)
Datum Zeit Temp. A. Feuchte A. Luftdruck Regen Wind Richtung Taupunkt Windchill Windben
09.11.2009 00:00 7,2 C 93 % 1002,2 hPa 0,0 l/m 0,0 km/h N 6,1 C 7,2 C 0,8 km/h
09.11.2009 01:00 7,2 C 93 % 1002,5 hPa 0,0 l/m 0,0 km/h N 6,1 C 7,2 C 5,6 km/h
09.11.2009 02:00 7,2 C 93 % 1002,5 hPa 0,3 l/m 0,0 km/h N 6,1 C 7,2 C 4,0 km/h
09.11.2009 03:00 7,2 C 93 % 1002,7 hPa 0,3 l/m 0,0 km/h N 6,1 C 7,2 C 0,8 km/h
09.11.2009 04:00 7,2 C 93 % 1002,8 hPa 0,3 l/m 0,0 km/h N 6,1 C 7,2 C 0,0 km/h
09.11.2009 05:00 6,8 C 93 % 1003,0 hPa 0,3 l/m 0,0 km/h N 5,7 C 6,8 C 0,0 km/h
09.11.2009 06:00 5,8 C 93 % 1003,5 hPa 0,0 l/m 0,0 km/h N 4,8 C 5,8 C 0,8 km/h
09.11.2009 07:00 5,1 C 93 % 1004,2 hPa 0,0 l/m 0,0 km/h N 4,0 C 5,1 C 0,5 km/h
09.11.2009 08:00 6,1 C 93 % 1004,6 hPa 0,0 l/m 0,2 km/h N 5,1 C 6,1 C 2,4 km/h
09.11.2009 09:00 8,0 C 94 % 1004,7 hPa 0,0 l/m 1,3 km/h SW 7,0 C 8,0 C 8,9 km/h
09.11.2009 10:00 9,5 C 87 % 1005,4 hPa 0,0 l/m 2,2 km/h S 7,5 C 9,5 C 10,5 km/h
09.11.2009 11:00 11,1 C 80 % 1005,5 hPa 0,0 l/m 2,4 km/h S 7,9 C 11,1 C 9,7 km/h
09.11.2009 12:00 12,0 C 76 % 1005,7 hPa 0,0 l/m 2,3 km/h S-SO 7,8 C 12,0 C 10,5 km/h
09.11.2009 13:00 12,2 C 73 % 1005,8 hPa 0,0 l/m 1,3 km/h O-NO 7,4 C 12,2 C 6,4 km/h
09.11.2009 14:00 11,8 C 78 % 1006,2 hPa 0,0 l/m 2,0 km/h O 8,0 C 11,8 C 7,6 km/h
09.11.2009 15:00 10,9 C 81 % 1006,8 hPa 0,0 l/m 1,1 km/h O 7,8 C 10,9 C 5,6 km/h
09.11.2009 16:00 9,0 C 85 % 1007,6 hPa 0,0 l/m 0,1 km/h N 6,7 C 9,0 C 2,4 km/h
09.11.2009 17:00 7,1 C 89 % 1008,6 hPa 0,0 l/m 0,1 km/h N 5,3 C 7,1 C 1,2 km/h
09.11.2009 18:00 7,5 C 91 % 1009,2 hPa 0,0 l/m 0,5 km/h N 6,2 C 7,5 C 2,8 km/h
09.11.2009 19:00 8,0 C 90 % 1009,5 hPa 0,0 l/m 0,3 km/h N 6,4 C 8,0 C 2,4 km/h
09.11.2009 20:00 7,6 C 91 % 1009,9 hPa 0,0 l/m 0,0 km/h N 6,2 C 7,6 C 0,4 km/h
09.11.2009 21:00 6,4 C 91 % 1009,9 hPa 0,0 l/m 0,0 km/h N 5,1 C 6,4 C 0,0 km/h
09.11.2009 22:00 5,9 C 92 % 1009,8 hPa 0,0 l/m 0,0 km/h N 4,6 C 5,9 C 2,0 km/h
09.11.2009 23:00 5,5 C 92 % 1010,3 hPa 0,0 l/m 0,0 km/h N 4,3 C 5,5 C 0,4 km/h
10.11.2009 00:00 6,1 C 92 % 1010,3 hPa 0,0 l/m 0,0 km/h N 4,9 C 6,1 C 1,2 km/h
10.11.2009 01:00 6,2 C 92 % 1009,9 hPa 0,0 l/m 0,5 km/h N 5,0 C 6,2 C 2,0 km/h
10.11.2009 02:00 5,7 C 92 % 1009,3 hPa 0,0 l/m 1,4 km/h NW 4,5 C 5,7 C 4,8 km/h
10.11.2009 03:00 5,9 C 92 % 1009,4 hPa 0,0 l/m 0,8 km/h N 4,7 C 5,9 C 4,0 km/h
10.11.2009 04:00 6,0 C 92 % 1009,5 hPa 0,0 l/m 0,6 km/h SW 4,7 C 6,0 C 3,2 km/h
10.11.2009 05:00 6,6 C 91 % 1009,0 hPa 0,0 l/m 2,0 km/h N-NW 5,2 C 6,6 C 6,4 km/h
10.11.2009 06:00 6,8 C 88 % 1009,2 hPa 0,0 l/m 2,1 km/h NW 4,9 C 6,8 C 6,8 km/h
10.11.2009 07:00 6,9 C 86 % 1009,1 hPa 0,0 l/m 3,5 km/h NW 4,6 C 6,9 C 9,7 km/h
10.11.2009 08:00 6,8 C 85 % 1009,0 hPa 0,0 l/m 4,1 km/h NW 4,5 C 6,8 C 12,9 km/h
10.11.2009 09:00 7,1 C 81 % 1008,6 hPa 0,0 l/m 4,5 km/h NW 4,1 C 7,1 C 16,1 km/h
10.11.2009 10:00 7,3 C 79 % 1008,2 hPa 0,0 l/m 6,7 km/h W 3,9 C 7,1 C 19,3 km/h
10.11.2009 11:00 7,2 C 78 % 1007,9 hPa 0,0 l/m 6,8 km/h NW 3,6 C 6,8 C 17,7 km/h
10.11.2009 12:00 7,3 C 77 % 1007,3 hPa 0,0 l/m 6,5 km/h W-NW 3,5 C 6,9 C 21,3 km/h
10.11.2009 13:00 7,1 C 77 % 1006,9 hPa 0,0 l/m 8,7 km/h NW 3,3 C 5,2 C 24,1 km/h
10.11.2009 14:00 6,7 C 78 % 1006,6 hPa 0,0 l/m 7,9 km/h W-NW 3,1 C 5,5 C 23,3 km/h
10.11.2009 15:00 6,2 C 80 % 1006,4 hPa 1,3 l/m 7,4 km/h NW 3,1 C 5,4 C 21,7 km/h
10.11.2009 16:00 5,4 C 85 % 1006,6 hPa 1,8 l/m 8,1 km/h NW 3,0 C 4,1 C 29,0 km/h
10.11.2009 17:00 4,9 C 87 % 1006,8 hPa 0,8 l/m 7,8 km/h N-NW 2,8 C 3,7 C 25,8 km/h
10.11.2009 18:00 4,7 C 87 % 1006,7 hPa 0,0 l/m 10,4 km/h NW 2,7 C 1,4 C 25,8 km/h
10.11.2009 19:00 4,5 C 87 % 1006,9 hPa 0,0 l/m 9,3 km/h N-NW 2,5 C 2,1 C 24,9 km/h
10.11.2009 20:00 4,3 C 88 % 1006,7 hPa 0,5 l/m 8,9 km/h N 2,5 C 2,1 C 22,9 km/h
10.11.2009 21:00 4,3 C 87 % 1006,4 hPa 0,0 l/m 10,3 km/h W-NW 2,4 C 1,1 C 26,1 km/h
10.11.2009 22:00 4,5 C 85 % 1006,4 hPa 0,0 l/m 11,3 km/h NW 2,2 C 0,7 C 29,0 km/h
10.11.2009 23:00 4,4 C 86 % 1006,2 hPa 0,3 l/m 9,6 km/h N-NW 2,2 C 1,8 C 24,6 km/h
11.11.2009 00:00 4,2 C 87 % 1006,3 hPa 0,3 l/m 9,0 km/h NW 2,2 C 2,1 C 26,1 km/h
11.11.2009 01:00 4,2 C 87 % 1006,0 hPa 0,3 l/m 9,3 km/h W-NW 2,2 C 1,8 C 26,5 km/h
11.11.2009 02:00 4,1 C 87 % 1005,8 hPa 0,8 l/m 9,6 km/h W 2,1 C 1,5 C 29,8 km/h
11.11.2009 03:00 4,0 C 87 % 1005,6 hPa 0,5 l/m 10,1 km/h W-NW 2,0 C 0,9 C 31,4 km/h
11.11.2009 04:00 3,9 C 87 % 1005,5 hPa 0,3 l/m 10,4 km/h NW 2,0 C 0,6 C 27,0 km/h
11.11.2009 05:00 3,9 C 88 % 1005,8 hPa 0,3 l/m 8,9 km/h NW 2,1 C 1,7 C 24,9 km/h
11.11.2009 06:00 3,8 C 88 % 1005,9 hPa 0,5 l/m 8,6 km/h W-NW 2,0 C 1,9 C 24,5 km/h
11.11.2009 07:00 4,1 C 88 % 1006,0 hPa 0,8 l/m 8,0 km/h NW 2,3 C 2,7 C 22,9 km/h
11.11.2009 08:00 4,6 C 88 % 1006,0 hPa 0,3 l/m 8,3 km/h NW 2,8 C 3,0 C 25,8 km/h
11.11.2009 09:00 5,3 C 85 % 1006,2 hPa 0,3 l/m 8,8 km/h NW 3,0 C 3,4 C 27,3 km/h
11.11.2009 10:00 5,7 C 86 % 1006,1 hPa 0,0 l/m 8,5 km/h N-NW 3,5 C 4,0 C 23,7 km/h
11.11.2009 11:00 6,0 C 85 % 1005,9 hPa 0,3 l/m 9,6 km/h SW 3,7 C 3,5 C 22,9 km/h
11.11.2009 12:00 6,0 C 86 % 1005,8 hPa 0,3 l/m 10,1 km/h NW 3,8 C 3,2 C 25,8 km/h
11.11.2009 13:00 6,2 C 85 % 1005,4 hPa 0,5 l/m 11,3 km/h NW 3,9 C 2,6 C 29,0 km/h
11.11.2009 14:00 6,3 C 85 % 1005,8 hPa 0,5 l/m 9,2 km/h N-NW 4,0 C 4,1 C 24,9 km/h
11.11.2009 15:00 6,4 C 85 % 1006,0 hPa 0,5 l/m 8,0 km/h NW 4,1 C 5,1 C 22,5 km/h
11.11.2009 16:00 6,4 C 85 % 1006,3 hPa 0,0 l/m 8,8 km/h NW 4,1 C 4,5 C 24,1 km/h
11.11.2009 17:00 6,6 C 84 % 1006,6 hPa 0,0 l/m 8,4 km/h W 4,0 C 5,1 C 24,5 km/h
11.11.2009 18:00 7,0 C 81 % 1007,1 hPa 0,0 l/m 8,7 km/h W-NW 3,9 C 5,1 C 26,1 km/h
11.11.2009 19:00 7,0 C 80 % 1007,6 hPa 0,0 l/m 7,9 km/h W-NW 3,8 C 5,7 C 20,9 km/h
11.11.2009 20:00 7,1 C 79 % 1008,0 hPa 0,0 l/m 8,5 km/h S 3,8 C 5,5 C 23,3 km/h
11.11.2009 21:00 7,3 C 78 % 1008,5 hPa 0,0 l/m 7,4 km/h W-NW 3,7 C 6,4 C 24,1 km/h
11.11.2009 22:00 7,1 C 78 % 1008,8 hPa 0,0 l/m 6,3 km/h W 3,6 C 6,9 C 20,5 km/h
11.11.2009 23:00 7,0 C 78 % 1009,1 hPa 0,0 l/m 6,9 km/h S-SW 3,4 C 6,2 C 22,5 km/h
12.11.2009 00:00 6,7 C 76 % 1009,3 hPa 0,0 l/m 7,2 km/h W-NW 2,8 C 6,0 C 23,3 km/h
12.11.2009 01:00 6,3 C 75 % 1010,0 hPa 0,0 l/m 5,9 km/h NW 2,2 C 6,2 C 21,3 km/h
12.11.2009 02:00 6,2 C 75 % 1010,3 hPa 0,0 l/m 5,7 km/h NW 2,2 C 6,0 C 22,9 km/h
12.11.2009 03:00 6,3 C 76 % 1010,5 hPa 0,0 l/m 5,9 km/h W-NW 2,4 C 6,3 C 20,9 km/h
12.11.2009 04:00 6,3 C 73 % 1011,0 hPa 0,0 l/m 5,1 km/h W 1,9 C 6,3 C 18,5 km/h
12.11.2009 05:00 6,1 C 72 % 1011,1 hPa 0,0 l/m 4,4 km/h W-NW 1,4 C 6,1 C 17,3 km/h
12.11.2009 06:00 6,1 C 70 % 1011,3 hPa 0,0 l/m 5,0 km/h W-SW 1,0 C 6,0 C 18,1 km/h
12.11.2009 07:00 6,2 C 71 % 1011,6 hPa 0,0 l/m 4,5 km/h W-SW 1,3 C 6,2 C 16,1 km/h
12.11.2009 08:00 6,7 C 72 % 1012,0 hPa 0,0 l/m 4,1 km/h NW 1,9 C 6,7 C 14,5 km/h
12.11.2009 09:00 7,6 C 69 % 1012,0 hPa 0,0 l/m 5,1 km/h W-NW 2,3 C 7,6 C 18,5 km/h
12.11.2009 10:00 8,3 C 66 % 1012,3 hPa 0,0 l/m 7,2 km/h W 2,3 C 7,6 C 21,7 km/h
12.11.2009 11:00 9,6 C 62 % 1012,2 hPa 0,0 l/m 6,9 km/h W-SW 2,7 C 9,2 C 20,5 km/h
12.11.2009 12:00 10,3 C 58 % 1012,0 hPa 0,0 l/m 7,2 km/h W 2,3 C 9,7 C 21,3 km/h
12.11.2009 13:00 10,9 C 52 % 1011,6 hPa 0,0 l/m 6,1 km/h W-NW 1,5 C 10,7 C 19,3 km/h
12.11.2009 14:00 10,7 C 51 % 1011,5 hPa 0,0 l/m 5,6 km/h W-SW 0,9 C 10,7 C 18,9 km/h
12.11.2009 15:00 10,1 C 52 % 1011,3 hPa 0,0 l/m 4,6 km/h SW 0,6 C 10,1 C 16,1 km/h
12.11.2009 16:00 7,6 C 61 % 1011,7 hPa 0,0 l/m 0,3 km/h N 0,5 C 7,6 C 2,4 km/h
12.11.2009 17:00 6,6 C 68 % 1012,3 hPa 0,0 l/m 0,5 km/h SW 1,2 C 6,6 C 4,0 km/h
12.11.2009 18:00 6,7 C 68 % 1013,2 hPa 0,0 l/m 0,4 km/h W-SW 1,3 C 6,7 C 3,2 km/h
12.11.2009 19:00 7,8 C 67 % 1013,3 hPa 0,0 l/m 1,6 km/h W-SW 2,0 C 7,8 C 8,4 km/h
12.11.2009 20:00 8,1 C 76 % 1014,0 hPa 0,3 l/m 3,1 km/h NW 4,1 C 8,1 C 14,1 km/h
12.11.2009 21:00 7,1 C 83 % 1014,3 hPa 0,0 l/m 0,3 km/h W-NW 4,4 C 7,1 C 3,6 km/h
12.11.2009 22:00 7,9 C 82 % 1014,7 hPa 0,0 l/m 3,9 km/h W 5,0 C 7,9 C 14,9 km/h
12.11.2009 23:00 8,4 C 79 % 1015,0 hPa 0,0 l/m 5,0 km/h W-SW 4,9 C 8,4 C 18,1 km/h
13.11.2009 00:00 8,0 C 78 % 1015,0 hPa 0,0 l/m 1,6 km/h W-SW 4,5 C 8,0 C 6,4 km/h
13.11.2009 01:00 8,0 C 79 % 1015,3 hPa 0,0 l/m 2,0 km/h W-SW 4,6 C 8,0 C 10,1 km/h
13.11.2009 02:00 8,1 C 79 % 1015,7 hPa 0,0 l/m 1,1 km/h W-NW 4,6 C 8,1 C 6,8 km/h
13.11.2009 03:00 7,6 C 80 % 1016,3 hPa 0,0 l/m 0,2 km/h N 4,3 C 7,6 C 2,4 km/h
13.11.2009 04:00 6,7 C 81 % 1016,8 hPa 0,0 l/m 0,0 km/h N 3,7 C 6,7 C 0,4 km/h
13.11.2009 05:00 4,8 C 82 % 1017,6 hPa 0,0 l/m 0,0 km/h N 1,9 C 4,8 C 0,4 km/h
13.11.2009 06:00 3,5 C 85 % 1017,7 hPa 0,0 l/m 0,0 km/h N 1,2 C 3,5 C 0,4 km/h
13.11.2009 07:00 2,8 C 87 % 1018,4 hPa 0,0 l/m 0,0 km/h N 0,9 C 2,8 C 0,8 km/h
13.11.2009 08:00 4,4 C 90 % 1018,8 hPa 0,0 l/m 0,0 km/h S-SO 2,9 C 4,4 C 0,4 km/h
13.11.2009 09:00 9,0 C 80 % 1018,7 hPa 0,0 l/m 3,7 km/h S 5,6 C 9,0 C 14,1 km/h
13.11.2009 10:00 10,3 C 73 % 1018,8 hPa 0,0 l/m 3,5 km/h S 5,7 C 10,3 C 14,1 km/h
13.11.2009 11:00 10,8 C 71 % 1018,7 hPa 0,0 l/m 3,0 km/h S 5,8 C 10,8 C 11,3 km/h
13.11.2009 12:00 11,7 C 67 % 1018,3 hPa 0,0 l/m 2,4 km/h S 5,6 C 11,7 C 10,9 km/h
13.11.2009 13:00 12,3 C 65 % 1017,8 hPa 0,0 l/m 1,8 km/h O 5,9 C 12,3 C 7,7 km/h
13.11.2009 14:00 12,5 C 65 % 1017,7 hPa 0,0 l/m 0,6 km/h N 6,0 C 12,5 C 5,2 km/h
13.11.2009 15:00 12,1 C 67 % 1018,2 hPa 0,0 l/m 0,1 km/h N 6,1 C 12,1 C 3,6 km/h
13.11.2009 16:00 10,9 C 70 % 1018,5 hPa 0,0 l/m 0,1 km/h N 5,7 C 10,9 C 1,6 km/h
13.11.2009 17:00 8,9 C 75 % 1018,9 hPa 0,0 l/m 0,0 km/h N 4,8 C 8,9 C 0,4 km/h
13.11.2009 18:00 7,3 C 80 % 1019,5 hPa 0,0 l/m 0,0 km/h N 4,1 C 7,3 C 0,4 km/h
13.11.2009 19:00 6,3 C 84 % 1019,9 hPa 0,0 l/m 0,0 km/h N 3,7 C 6,3 C 0,8 km/h
13.11.2009 20:00 5,3 C 85 % 1020,2 hPa 0,0 l/m 0,0 km/h N 3,0 C 5,3 C 0,4 km/h
13.11.2009 21:00 4,6 C 86 % 1020,0 hPa 0,0 l/m 0,0 km/h N 2,5 C 4,6 C 0,0 km/h
13.11.2009 22:00 3,8 C 87 % 1019,8 hPa 0,0 l/m 0,0 km/h N 1,8 C 3,8 C 0,0 km/h
13.11.2009 23:00 3,3 C 88 % 1020,0 hPa 0,0 l/m 0,0 km/h N 1,4 C 3,3 C 0,0 km/h
14.11.2009 00:00 2,8 C 89 % 1019,9 hPa 0,0 l/m 0,0 km/h N 1,1 C 2,8 C 0,0 km/h
14.11.2009 01:00 2,4 C 89 % 1019,8 hPa 0,0 l/m 0,0 km/h N 0,8 C 2,4 C 0,0 km/h
14.11.2009 02:00 1,7 C 89 % 1019,6 hPa 0,0 l/m 0,0 km/h N 0,1 C 1,7 C 0,0 km/h
14.11.2009 03:00 1,2 C 89 % 1019,5 hPa 0,0 l/m 0,0 km/h N -0,4 C 1,2 C 0,0 km/h
14.11.2009 04:00 0,9 C 90 % 1019,6 hPa 0,0 l/m 0,0 km/h N -0,5 C 0,9 C 0,4 km/h
14.11.2009 05:00 0,9 C 90 % 1019,4 hPa 0,0 l/m 0,0 km/h N -0,6 C 0,9 C 0,0 km/h
14.11.2009 06:00 1,5 C 91 % 1019,4 hPa 0,0 l/m 0,1 km/h N 0,2 C 1,5 C 0,8 km/h
14.11.2009 07:00 2,4 C 92 % 1019,6 hPa 0,0 l/m 0,2 km/h N 1,3 C 2,4 C 1,2 km/h
14.11.2009 08:00 3,1 C 92 % 1019,5 hPa 0,0 l/m 0,0 km/h N 1,9 C 3,1 C 0,8 km/h
14.11.2009 09:00 4,2 C 93 % 1019,3 hPa 0,3 l/m 0,1 km/h N 3,2 C 4,2 C 2,4 km/h
14.11.2009 10:00 5,2 C 93 % 1018,8 hPa 0,0 l/m 0,3 km/h N 4,1 C 5,2 C 4,0 km/h
14.11.2009 11:00 5,5 C 93 % 1018,3 hPa 0,0 l/m 0,3 km/h N 4,5 C 5,5 C 4,0 km/h
14.11.2009 12:00 5,9 C 93 % 1017,5 hPa 0,0 l/m 0,3 km/h N 4,8 C 5,9 C 3,6 km/h
14.11.2009 13:00 6,3 C 93 % 1016,7 hPa 0,0 l/m 0,3 km/h W-SW 5,2 C 6,3 C 4,0 km/h
14.11.2009 14:00 6,4 C 93 % 1016,1 hPa 0,0 l/m 1,3 km/h S 5,3 C 6,4 C 7,2 km/h
14.11.2009 15:00 6,2 C 91 % 1015,4 hPa 0,0 l/m 0,9 km/h S-SO 4,9 C 6,2 C 5,6 km/h
14.11.2009 16:00 5,4 C 91 % 1015,2 hPa 0,0 l/m 0,0 km/h N 4,0 C 5,4 C 0,4 km/h
14.11.2009 17:00 4,7 C 91 % 1015,0 hPa 0,0 l/m 0,0 km/h N 3,3 C 4,7 C 0,4 km/h
14.11.2009 18:00 5,5 C 92 % 1014,9 hPa 0,0 l/m 0,1 km/h N 4,3 C 5,5 C 0,8 km/h
14.11.2009 19:00 6,5 C 92 % 1014,7 hPa 0,0 l/m 1,2 km/h W-SW 5,3 C 6,5 C 5,2 km/h
14.11.2009 20:00 7,1 C 92 % 1014,8 hPa 0,0 l/m 0,6 km/h N 5,9 C 7,1 C 6,0 km/h
14.11.2009 21:00 7,5 C 91 % 1014,8 hPa 0,0 l/m 0,4 km/h NW 6,2 C 7,5 C 4,0 km/h
14.11.2009 22:00 7,7 C 90 % 1015,1 hPa 0,0 l/m 2,5 km/h NW 6,2 C 7,7 C 8,8 km/h
14.11.2009 23:00 7,7 C 88 % 1015,6 hPa 0,0 l/m 2,8 km/h W-NW 5,9 C 7,7 C 10,5 km/h
15.11.2009 00:00 7,6 C 87 % 1015,8 hPa 0,0 l/m 6,1 km/h N-NW 5,6 C 7,5 C 16,1 km/h
15.11.2009 01:00 7,7 C 86 % 1016,2 hPa 0,0 l/m 9,4 km/h N-NW 5,4 C 5,6 C 21,3 km/h
15.11.2009 02:00 8,9 C 82 % 1016,5 hPa 0,0 l/m 8,6 km/h NW 6,0 C 7,4 C 21,3 km/h
15.11.2009 03:00 10,6 C 77 % 1016,9 hPa 0,0 l/m 7,7 km/h W 6,7 C 9,8 C 22,9 km/h
15.11.2009 04:00 10,9 C 75 % 1016,8 hPa 0,0 l/m 5,8 km/h N-NO 6,6 C 10,8 C 16,5 km/h
15.11.2009 05:00 11,3 C 73 % 1016,8 hPa 0,0 l/m 4,1 km/h W 6,6 C 11,3 C 15,7 km/h
15.11.2009 06:00 12,1 C 68 % 1016,9 hPa 0,0 l/m 5,4 km/h W-NW 6,5 C 12,2 C 20,5 km/h
15.11.2009 07:00 11,8 C 71 % 1017,5 hPa 0,0 l/m 6,2 km/h NW 6,6 C 11,5 C 17,3 km/h
15.11.2009 08:00 11,2 C 74 % 1018,3 hPa 0,0 l/m 3,3 km/h NW 6,7 C 11,2 C 8,4 km/h
15.11.2009 09:00 11,6 C 73 % 1019,0 hPa 0,0 l/m 5,0 km/h NW 7,0 C 11,6 C 12,9 km/h
15.11.2009 10:00 13,1 C 69 % 1019,0 hPa 0,0 l/m 4,4 km/h W 7,5 C 13,1 C 12,9 km/h
15.11.2009 11:00 13,9 C 65 % 1018,7 hPa 0,0 l/m 4,2 km/h N-NW 7,5 C 13,9 C 10,1 km/h
15.11.2009 12:00 14,3 C 61 % 1018,3 hPa 0,0 l/m 4,7 km/h NW 6,8 C 14,3 C 11,3 km/h
15.11.2009 13:00 14,8 C 58 % 1017,8 hPa 0,0 l/m 5,7 km/h NW 6,5 C 14,8 C 12,1 km/h
15.11.2009 14:00 14,8 C 58 % 1017,3 hPa 0,0 l/m 4,2 km/h NW 6,6 C 14,8 C 10,1 km/h
15.11.2009 15:00 13,0 C 63 % 1017,2 hPa 0,0 l/m 1,0 km/h N 6,2 C 13,0 C 3,2 km/h
15.11.2009 16:00 10,1 C 75 % 1017,0 hPa 0,0 l/m 0,0 km/h N 5,9 C 10,1 C 1,6 km/h
15.11.2009 17:00 8,1 C 82 % 1017,0 hPa 0,0 l/m 0,3 km/h N 5,2 C 8,1 C 1,6 km/h
15.11.2009 18:00 7,1 C 85 % 1017,0 hPa 0,0 l/m 0,0 km/h N 4,8 C 7,1 C 0,8 km/h
15.11.2009 19:00 6,7 C 84 % 1016,9 hPa 0,0 l/m 0,0 km/h N 4,2 C 6,7 C 0,0 km/h
15.11.2009 20:00 5,9 C 85 % 1016,9 hPa 0,0 l/m 0,0 km/h N 3,6 C 5,9 C 0,0 km/h
15.11.2009 21:00 5,5 C 87 % 1016,5 hPa 0,0 l/m 0,0 km/h N 3,5 C 5,5 C 0,0 km/h
15.11.2009 22:00 5,6 C 88 % 1016,1 hPa 0,0 l/m 0,0 km/h N 3,8 C 5,6 C 0,0 km/h
15.11.2009 23:00 5,8 C 89 % 1015,5 hPa 0,0 l/m 0,0 km/h N 4,1 C 5,8 C 0,0 km/h
Min-Datum _ 14.11.09 12.11.09 09.11.09 - 09.11.09 - 14.11.09 10.11.09 09.11.09
_ Min-Zeit 05:15 13:45 00:00 - 00:00 - 05:00 22:15 00:30
Minimum _ 0,8 C 50 % 1002,1 hPa - 0,0 km/h - -0,6 C -1,3 C 0,0 km/h
Max-Datum _ 15.11.09 09.11.09 13.11.09 10.11.09 10.11.09 - 09.11.09 15.11.09 11.11.09
_ Max-Zeit 13:15 08:45 20:45 16:00 22:15 - 11:45 13:30 03:00
Maximum _ 14,9 C 94 % 1020,3 hPa 1,8 l/m 14,5 km/h
NW
- 8,2 C 14,9 C 33,8 km/h
N-NW
Durchschnitt _ 7,1 C 82 % 1012,2 hPa #12,5 l/m 3,5 km/h NW 4,0 C 6,6 C 11,1 km/h